createdAt,value
2018-07-06T00:02:04.243Z,61.00
2018-07-06T00:04:46.664Z,61.30
2018-07-06T00:07:30.446Z,61.50
2018-07-06T00:10:12.970Z,61.70
2018-07-06T00:12:55.194Z,61.80
2018-07-06T00:15:37.606Z,61.90
2018-07-06T00:18:20.296Z,61.90
2018-07-06T00:21:02.894Z,61.80
2018-07-06T00:23:45.232Z,61.90
2018-07-06T00:26:27.838Z,61.80
2018-07-06T00:29:10.354Z,62.00
2018-07-06T00:31:53.186Z,62.00
2018-07-06T00:37:12.541Z,61.60
2018-07-06T00:39:54.813Z,61.40
2018-07-06T00:42:37.909Z,61.30
2018-07-06T00:45:20.577Z,61.40
2018-07-06T00:48:04.176Z,61.20
2018-07-06T00:50:46.932Z,61.10
2018-07-06T00:53:30.637Z,61.30
2018-07-06T00:56:13.134Z,61.20
2018-07-06T00:58:56.562Z,61.20
2018-07-06T01:01:39.275Z,61.30
2018-07-06T01:04:21.461Z,61.40
2018-07-06T01:07:04.107Z,61.70
2018-07-06T01:09:46.660Z,61.70
2018-07-06T01:12:33.539Z,61.60
2018-07-06T01:15:20.237Z,61.60
2018-07-06T01:18:02.523Z,61.50
2018-07-06T01:23:22.173Z,61.40
2018-07-06T01:26:04.635Z,61.10
2018-07-06T01:28:47.339Z,61.20
2018-07-06T01:34:06.906Z,61.50
2018-07-06T01:36:49.571Z,61.40
2018-07-06T01:39:32.569Z,61.30
2018-07-06T01:42:15.448Z,61.20
2018-07-06T01:44:57.899Z,61.00
2018-07-06T01:47:40.102Z,60.80
2018-07-06T01:50:24.322Z,60.60
2018-07-06T01:53:06.715Z,60.30
2018-07-06T01:58:26.198Z,60.60
2018-07-06T02:01:08.609Z,60.20
2018-07-06T02:06:27.643Z,60.10
2018-07-06T02:09:10.348Z,60.10
2018-07-06T02:11:52.945Z,60.10
2018-07-06T02:14:35.778Z,60.20
2018-07-06T02:17:18.830Z,60.10
2018-07-06T02:20:01.428Z,60.00
2018-07-06T02:22:44.305Z,59.90
2018-07-06T02:25:27.896Z,59.50
2018-07-06T02:28:10.872Z,59.40
2018-07-06T02:30:53.568Z,59.10
2018-07-06T02:33:35.631Z,58.60
2018-07-06T02:36:18.326Z,58.20
2018-07-06T02:39:00.822Z,58.10
2018-07-06T02:44:20.302Z,57.40
2018-07-06T02:47:03.064Z,57.10
2018-07-06T02:49:45.806Z,56.90
2018-07-06T02:52:29.618Z,56.80
2018-07-06T02:55:13.354Z,56.70
2018-07-06T02:57:55.740Z,56.80
2018-07-06T03:00:38.004Z,57.40
2018-07-06T03:03:20.577Z,56.60
2018-07-06T03:06:03.138Z,56.30
2018-07-06T03:08:45.362Z,56.30
2018-07-06T03:11:27.836Z,55.90
2018-07-06T03:14:10.562Z,55.80
2018-07-06T03:16:52.825Z,55.60
2018-07-06T03:19:36.540Z,55.50
2018-07-06T03:22:19.007Z,55.60
2018-07-06T03:25:01.936Z,55.30
2018-07-06T03:27:44.084Z,55.20
2018-07-06T03:30:27.917Z,55.00
2018-07-06T03:33:10.696Z,55.00
2018-07-06T03:35:54.135Z,55.20
2018-07-06T03:38:36.819Z,54.90
2018-07-06T03:41:19.320Z,54.60
2018-07-06T03:46:39.081Z,53.20
2018-07-06T03:49:22.046Z,53.40
2018-07-06T03:52:04.567Z,52.70
2018-07-06T03:54:49.135Z,52.30
2018-07-06T03:57:31.847Z,52.00
2018-07-06T04:00:14.629Z,51.30
2018-07-06T04:02:56.992Z,51.30
2018-07-06T04:05:40.620Z,50.60
2018-07-06T04:08:23.070Z,50.50
2018-07-06T04:11:05.921Z,50.10
2018-07-06T04:13:48.497Z,50.20
2018-07-06T04:16:32.355Z,49.70
2018-07-06T04:19:15.031Z,49.90
2018-07-06T04:21:58.153Z,49.90
2018-07-06T04:27:17.405Z,50.70
2018-07-06T04:32:36.495Z,51.40
2018-07-06T04:35:19.084Z,51.00
2018-07-06T04:38:01.720Z,51.10
2018-07-06T04:40:44.177Z,51.00
2018-07-06T04:43:26.497Z,50.80
2018-07-06T04:46:09.296Z,50.70
2018-07-06T04:48:51.826Z,50.20
2018-07-06T04:54:11.576Z,50.00
2018-07-06T04:56:55.953Z,49.60
2018-07-06T04:59:38.503Z,49.10
2018-07-06T05:02:21.314Z,49.10
2018-07-06T05:05:03.965Z,49.40
2018-07-06T05:07:46.635Z,49.30
2018-07-06T05:10:43.705Z,49.50
2018-07-06T05:13:26.452Z,49.30
2018-07-06T05:16:09.976Z,48.90
2018-07-06T05:18:52.527Z,49.30
2018-07-06T05:21:35.203Z,49.40
2018-07-06T05:24:17.633Z,50.10
2018-07-06T05:27:00.195Z,49.70
2018-07-06T05:29:42.935Z,49.90
2018-07-06T05:32:26.397Z,49.60
2018-07-06T05:35:08.951Z,49.20
2018-07-06T05:37:51.639Z,49.00
2018-07-06T05:40:33.731Z,48.90
2018-07-06T05:43:16.402Z,48.40
2018-07-06T05:45:59.137Z,48.30
2018-07-06T05:48:41.986Z,48.90
2018-07-06T05:51:24.518Z,49.40
2018-07-06T05:54:07.089Z,49.10
2018-07-06T05:56:50.542Z,48.80
2018-07-06T05:59:33.485Z,48.60
2018-07-06T06:02:16.327Z,48.40
2018-07-06T06:04:59.027Z,48.40
2018-07-06T06:07:29.393Z,48.50
2018-07-06T06:10:03.489Z,48.60
2018-07-06T06:15:10.043Z,48.70
2018-07-06T06:17:43.976Z,48.70
2018-07-06T06:20:19.936Z,48.90
2018-07-06T06:22:53.862Z,48.80
2018-07-06T06:25:27.383Z,49.60
2018-07-06T06:30:37.913Z,49.40
2018-07-06T06:35:45.061Z,49.90
2018-07-06T06:38:18.856Z,50.20
2018-07-06T06:40:53.010Z,49.30
2018-07-06T06:43:26.602Z,50.10
2018-07-06T06:46:00.334Z,49.60
2018-07-06T06:48:34.012Z,49.40
2018-07-06T06:51:08.255Z,49.30
2018-07-06T06:53:42.957Z,49.40
2018-07-06T06:56:17.052Z,49.30
2018-07-06T06:58:51.916Z,49.40
2018-07-06T07:01:25.545Z,49.50
2018-07-06T07:03:59.481Z,49.40
2018-07-06T07:06:33.547Z,49.60
2018-07-06T07:09:08.143Z,49.70
2018-07-06T07:11:41.856Z,49.80
2018-07-06T07:14:16.258Z,49.90
2018-07-06T07:16:49.832Z,50.00
2018-07-06T07:19:23.883Z,50.20
2018-07-06T07:21:57.708Z,50.40
2018-07-06T07:24:31.831Z,50.50
2018-07-06T07:27:06.134Z,50.80
2018-07-06T07:29:39.319Z,50.90
2018-07-06T07:32:13.124Z,51.00
2018-07-06T07:37:20.456Z,51.40
2018-07-06T07:39:54.784Z,51.40
2018-07-06T07:42:29.808Z,52.10
2018-07-06T07:45:04.012Z,51.40
2018-07-06T07:47:38.161Z,51.60
2018-07-06T07:50:12.531Z,51.40
2018-07-06T07:52:55.022Z,51.30
2018-07-06T07:58:03.115Z,51.10
2018-07-06T08:00:38.754Z,51.10
2018-07-06T08:28:47.990Z,52.00
2018-07-06T08:35:02.426Z,53.60
2018-07-06T08:37:46.193Z,53.60
2018-07-06T08:40:20.709Z,53.30
2018-07-06T08:42:58.306Z,53.30
2018-07-06T08:45:32.757Z,53.20
2018-07-06T08:48:06.729Z,53.00
2018-07-06T08:50:40.849Z,53.00
2018-07-06T08:53:14.663Z,52.80
2018-07-06T08:55:48.910Z,52.50
2018-07-06T08:58:22.541Z,51.60
2018-07-06T09:00:57.380Z,51.00
2018-07-06T09:03:32.155Z,50.80
2018-07-06T09:06:06.008Z,50.30
2018-07-06T09:08:40.234Z,50.40
2018-07-06T09:11:14.521Z,50.30
2018-07-06T09:13:58.374Z,49.90
2018-07-06T09:16:33.510Z,49.80
2018-07-06T09:19:07.360Z,49.50
2018-07-06T09:21:42.873Z,49.60
2018-07-06T09:24:17.164Z,49.70
2018-07-06T09:26:51.193Z,50.00
2018-07-06T09:29:25.171Z,50.20
2018-07-06T09:31:59.390Z,50.30
2018-07-06T09:34:33.085Z,50.30
2018-07-06T09:37:07.127Z,50.60
2018-07-06T09:39:42.166Z,50.80
2018-07-06T09:42:16.244Z,50.90
2018-07-06T09:44:50.225Z,51.20
2018-07-06T09:47:24.117Z,51.30
2018-07-06T09:49:57.834Z,51.30
2018-07-06T09:52:31.558Z,51.30
2018-07-06T09:57:37.912Z,51.90
2018-07-06T10:00:15.675Z,52.40
2018-07-06T10:02:49.498Z,52.80
2018-07-06T10:05:24.071Z,53.10
2018-07-06T10:07:58.823Z,53.00
2018-07-06T10:10:32.879Z,52.90
2018-07-06T10:13:07.000Z,52.90
2018-07-06T10:15:41.238Z,52.90
2018-07-06T10:23:20.235Z,52.70
2018-07-06T10:25:54.363Z,52.50
2018-07-06T10:28:39.145Z,52.40
2018-07-06T10:31:33.329Z,52.30
2018-07-06T10:36:39.030Z,52.80
2018-07-06T10:39:12.948Z,52.70
2018-07-06T11:14:19.090Z,52.80
2018-07-06T11:16:54.099Z,52.90
2018-07-06T11:19:27.966Z,56.80
2018-07-06T11:22:01.899Z,57.40
2018-07-06T11:24:35.789Z,57.80
2018-07-06T11:29:42.370Z,57.00
2018-07-06T11:32:16.135Z,56.80
2018-07-06T11:34:51.151Z,56.20
2018-07-06T11:37:25.018Z,55.70
2018-07-06T11:45:03.969Z,55.00
2018-07-06T11:47:40.610Z,55.00
2018-07-06T11:50:14.367Z,54.80
2018-07-06T11:52:49.180Z,54.70
2018-07-06T11:55:22.882Z,54.80
2018-07-06T11:57:57.463Z,54.80
2018-07-06T12:00:31.209Z,54.80
2018-07-06T12:03:05.496Z,54.70
2018-07-06T12:05:39.243Z,54.40
2018-07-06T12:08:13.395Z,54.30
2018-07-06T12:10:47.127Z,54.00
2018-07-06T12:13:22.815Z,53.90
2018-07-06T12:18:31.223Z,53.70
2018-07-06T12:21:05.949Z,53.70
2018-07-06T12:23:39.622Z,53.80
2018-07-06T12:45:04.851Z,54.20
2018-07-06T12:47:38.556Z,55.10
2018-07-06T12:50:13.112Z,58.00
2018-07-06T12:52:46.896Z,58.50
2018-07-06T12:55:20.666Z,59.10
2018-07-06T12:57:54.974Z,59.40
2018-07-06T13:00:28.445Z,59.30
2018-07-06T13:05:34.817Z,59.30
2018-07-06T13:08:08.831Z,59.30
2018-07-06T13:10:43.600Z,59.20
2018-07-06T13:13:17.631Z,59.30
2018-07-06T13:15:51.832Z,59.30
2018-07-06T13:18:25.845Z,59.00
2018-07-06T13:21:02.073Z,59.00
2018-07-06T13:23:35.925Z,59.00
2018-07-06T13:26:09.482Z,59.30
2018-07-06T13:28:43.113Z,59.20
2018-07-06T13:31:17.201Z,59.60
2018-07-06T13:33:51.048Z,60.00
2018-07-06T13:36:24.658Z,60.20
2018-07-06T13:38:58.953Z,60.60
2018-07-06T13:41:32.605Z,60.60
2018-07-06T13:46:39.430Z,60.20
2018-07-06T13:49:13.340Z,60.00
2018-07-06T13:54:24.965Z,59.40
2018-07-06T13:56:59.143Z,59.70
2018-07-06T13:59:33.101Z,59.80
2018-07-06T14:02:10.343Z,59.80
2018-07-06T14:04:44.317Z,59.90
2018-07-06T14:07:18.496Z,59.60
2018-07-06T14:09:51.963Z,59.40
2018-07-06T14:14:58.148Z,58.70
2018-07-06T14:20:05.130Z,58.60
2018-07-06T14:22:42.133Z,58.50
2018-07-06T14:25:16.066Z,58.30
2018-07-06T14:27:50.504Z,58.40
2018-07-06T14:30:24.028Z,58.50
2018-07-06T14:32:57.759Z,58.60
2018-07-06T14:35:31.846Z,58.60
2018-07-06T14:38:05.463Z,57.90
2018-07-06T14:40:38.700Z,57.10
2018-07-06T14:43:12.934Z,56.70
2018-07-06T14:45:46.868Z,56.40
2018-07-06T14:48:20.934Z,56.20
2018-07-06T14:50:55.009Z,55.90
2018-07-06T14:53:29.058Z,55.70
2018-07-06T14:56:03.308Z,56.00
2018-07-06T14:58:36.979Z,56.60
2018-07-06T15:01:10.493Z,56.80
2018-07-06T15:06:18.026Z,57.60
2018-07-06T15:08:52.396Z,57.40
2018-07-06T15:11:26.317Z,57.50
2018-07-06T15:14:00.102Z,57.50
2018-07-06T15:16:34.283Z,57.50
2018-07-06T15:19:08.635Z,57.40
2018-07-06T15:21:42.444Z,57.50
2018-07-06T15:24:17.672Z,57.50
2018-07-06T15:26:51.491Z,57.50
2018-07-06T15:31:59.035Z,57.50
2018-07-06T15:34:33.075Z,57.40
2018-07-06T15:37:06.972Z,57.40
2018-07-06T15:39:41.426Z,57.40
2018-07-06T15:42:14.827Z,57.50
2018-07-06T15:44:48.801Z,57.60
2018-07-06T15:47:22.960Z,57.70
2018-07-06T15:49:56.975Z,57.70
2018-07-06T15:52:31.482Z,57.50
2018-07-06T15:55:06.320Z,57.50
2018-07-06T15:57:40.429Z,57.40
2018-07-06T16:00:13.909Z,57.30
2018-07-06T16:02:47.593Z,57.40
2018-07-06T16:05:21.331Z,57.50
2018-07-06T16:07:55.313Z,57.50
2018-07-06T16:10:29.023Z,57.30
2018-07-06T16:13:03.613Z,57.20
2018-07-06T16:15:37.545Z,57.30
2018-07-06T16:18:11.571Z,57.20
2018-07-06T16:20:45.611Z,57.00
2018-07-06T16:23:19.440Z,57.00
2018-07-06T16:28:27.543Z,57.00
2018-07-06T16:31:01.514Z,57.00
2018-07-06T16:33:35.753Z,57.00
2018-07-06T16:36:09.249Z,57.00
2018-07-06T16:38:43.106Z,56.80
2018-07-06T16:41:17.039Z,56.70
2018-07-06T16:43:50.814Z,56.70
2018-07-06T16:46:25.143Z,56.60
2018-07-06T16:48:58.998Z,56.40
2018-07-06T16:51:32.761Z,56.40
2018-07-06T16:54:06.500Z,56.20
2018-07-06T16:56:40.354Z,56.20
2018-07-06T17:01:46.718Z,56.20
2018-07-06T17:04:20.780Z,56.00
2018-07-06T17:06:54.828Z,56.00
2018-07-06T17:09:28.902Z,56.20
2018-07-06T17:12:02.893Z,56.20
2018-07-06T17:14:37.188Z,56.20
2018-07-06T17:17:11.151Z,56.20
2018-07-06T17:19:45.186Z,56.10
2018-07-06T17:22:19.531Z,56.10
2018-07-06T17:24:53.392Z,56.20
2018-07-06T17:27:27.485Z,55.90
2018-07-06T17:32:33.797Z,56.20
2018-07-06T17:35:07.942Z,55.70
2018-07-06T17:37:42.023Z,55.70
2018-07-06T17:40:16.135Z,55.70
2018-07-06T18:18:35.690Z,55.40
2018-07-06T18:21:09.186Z,55.40
2018-07-06T18:23:42.991Z,57.60
2018-07-06T18:26:17.042Z,57.90
2018-07-06T18:28:52.871Z,57.90
2018-07-06T18:31:27.061Z,57.80
2018-07-06T18:34:01.131Z,57.60
2018-07-06T18:36:35.988Z,57.30
2018-07-06T18:39:09.988Z,57.10
2018-07-06T18:41:44.052Z,56.90
2018-07-06T18:44:18.028Z,56.80
2018-07-06T18:46:52.056Z,56.70
2018-07-06T18:49:25.751Z,56.80
2018-07-06T18:52:00.559Z,57.30
2018-07-06T18:54:34.385Z,57.70
2018-07-06T18:57:08.618Z,57.80
2018-07-06T18:59:42.750Z,57.90
2018-07-06T19:02:16.371Z,57.70
2018-07-06T19:07:22.657Z,57.60
2018-07-06T19:12:28.974Z,57.70
2018-07-06T19:15:03.427Z,57.70
2018-07-06T19:17:37.152Z,57.80
2018-07-06T19:20:11.187Z,57.80
2018-07-06T19:22:44.991Z,57.70
2018-07-06T19:27:51.587Z,57.60
2018-07-06T19:32:58.061Z,57.50
2018-07-06T19:35:32.197Z,57.50
2018-07-06T19:38:06.066Z,57.60
2018-07-06T19:40:40.131Z,57.60
2018-07-06T19:43:14.319Z,57.50
2018-07-06T19:45:48.497Z,57.60
2018-07-06T19:48:22.512Z,57.60
2018-07-06T19:50:56.498Z,57.60
2018-07-06T19:53:30.718Z,57.60
2018-07-06T19:56:04.681Z,57.60
2018-07-06T19:58:39.327Z,57.70
2018-07-06T20:03:44.909Z,57.70
2018-07-06T20:06:18.750Z,57.60
2018-07-06T20:09:06.659Z,57.60
2018-07-06T20:11:41.849Z,57.60
2018-07-06T20:14:15.628Z,57.90
2018-07-06T20:16:49.456Z,58.20
2018-07-06T20:24:29.017Z,58.70
2018-07-06T20:27:02.787Z,58.60
2018-07-06T20:29:36.608Z,58.50
2018-07-06T20:32:11.483Z,58.40
2018-07-06T20:34:45.496Z,58.40
2018-07-06T20:37:19.413Z,58.50
2018-07-06T20:44:57.456Z,58.70
2018-07-06T20:47:30.985Z,58.80
2018-07-06T20:50:04.713Z,58.90
2018-07-06T20:55:10.629Z,59.30
2018-07-06T20:57:44.682Z,59.50
2018-07-06T21:00:18.696Z,59.80
2018-07-06T21:02:52.645Z,59.60
2018-07-06T21:05:26.487Z,59.70
2018-07-06T21:07:59.988Z,59.80
2018-07-06T21:10:34.256Z,59.80
2018-07-06T21:28:48.171Z,59.80
2018-07-06T21:31:21.943Z,59.80
2018-07-06T21:33:56.571Z,61.70
2018-07-06T21:39:02.337Z,62.80
2018-07-06T21:44:08.402Z,62.70
2018-07-06T21:46:42.871Z,62.40
2018-07-06T21:49:16.956Z,62.10
2018-07-06T21:51:51.098Z,61.90
2018-07-06T21:54:25.450Z,61.70
2018-07-06T21:56:59.361Z,61.60
2018-07-06T21:59:33.370Z,61.60
2018-07-06T22:02:11.794Z,61.50
2018-07-06T22:04:47.455Z,61.40
2018-07-06T22:09:54.176Z,61.50
2018-07-06T22:15:01.500Z,61.10
2018-07-06T22:17:35.252Z,60.80
2018-07-06T22:20:09.026Z,60.70
2018-07-06T22:22:43.014Z,60.70
2018-07-06T22:25:17.221Z,60.60
2018-07-06T22:27:52.260Z,60.80
2018-07-06T22:30:25.795Z,61.00
2018-07-06T22:32:59.569Z,60.90
2018-07-06T22:35:34.760Z,60.90
2018-07-06T22:38:08.980Z,60.90
2018-07-06T22:40:42.583Z,60.90
2018-07-06T22:43:16.469Z,60.80
2018-07-06T22:45:50.915Z,60.70
2018-07-06T22:48:24.607Z,60.60
2018-07-06T22:50:58.258Z,60.30
2018-07-06T22:53:32.322Z,60.40
2018-07-06T22:56:05.538Z,60.40
2018-07-06T22:58:39.035Z,60.20
2018-07-06T23:03:46.005Z,59.80
2018-07-06T23:06:19.638Z,59.60
2018-07-06T23:11:26.200Z,59.50
2018-07-06T23:14:00.062Z,59.60
2018-07-06T23:16:34.446Z,59.80
2018-07-06T23:19:09.351Z,59.70
2018-07-06T23:21:43.272Z,59.80
2018-07-06T23:24:17.505Z,59.80
2018-07-06T23:26:51.186Z,59.70
2018-07-06T23:29:25.286Z,59.70
2018-07-06T23:31:58.516Z,59.90
2018-07-06T23:34:32.340Z,59.90
2018-07-06T23:37:07.326Z,59.70
2018-07-06T23:39:41.288Z,59.70
2018-07-06T23:42:15.491Z,59.70
2018-07-06T23:47:22.514Z,59.50
2018-07-06T23:49:56.119Z,59.50
2018-07-06T23:55:02.550Z,59.50
2018-07-06T23:57:36.480Z,59.50
